createdAt,value
2018-08-20T00:02:27.920Z,20.67
2018-08-20T00:04:58.896Z,20.62
2018-08-20T00:07:26.233Z,20.64
2018-08-20T00:09:54.496Z,20.70
2018-08-20T00:12:21.705Z,20.72
2018-08-20T00:14:49.018Z,20.70
2018-08-20T00:17:16.403Z,20.72
2018-08-20T00:19:43.705Z,20.64
2018-08-20T00:22:10.982Z,20.62
2018-08-20T00:24:38.229Z,20.53
2018-08-20T00:27:05.570Z,20.51
2018-08-20T00:29:36.058Z,20.39
2018-08-20T00:32:03.487Z,20.32
2018-08-20T00:34:30.767Z,20.33
2018-08-20T00:36:58.064Z,20.26
2018-08-20T00:39:25.479Z,20.30
2018-08-20T00:41:52.852Z,20.25
2018-08-20T00:44:20.154Z,20.25
2018-08-20T00:46:47.417Z,20.22
2018-08-20T00:49:15.729Z,20.24
2018-08-20T00:51:43.043Z,20.24
2018-08-20T00:54:10.270Z,20.31
2018-08-20T00:56:37.529Z,20.25
2018-08-20T00:59:04.823Z,20.25
2018-08-20T01:01:32.532Z,20.21
2018-08-20T01:04:00.434Z,20.13
2018-08-20T01:06:27.737Z,20.08
2018-08-20T01:08:55.003Z,20.03
2018-08-20T01:11:22.287Z,20.08
2018-08-20T01:13:49.695Z,20.01
2018-08-20T01:16:16.957Z,19.98
2018-08-20T01:18:44.254Z,19.98
2018-08-20T01:21:11.749Z,19.97
2018-08-20T01:23:39.012Z,19.95
2018-08-20T01:26:06.304Z,19.93
2018-08-20T01:28:33.594Z,19.89
2018-08-20T01:31:00.918Z,19.86
2018-08-20T01:33:28.273Z,19.86
2018-08-20T01:35:55.619Z,19.83
2018-08-20T01:38:23.231Z,19.87
2018-08-20T01:40:50.497Z,19.82
2018-08-20T01:43:17.828Z,19.79
2018-08-20T01:45:45.348Z,19.78
2018-08-20T01:48:12.687Z,19.75
2018-08-20T01:50:39.999Z,19.76
2018-08-20T01:53:07.297Z,19.75
2018-08-20T01:55:34.564Z,19.69
2018-08-20T01:58:01.859Z,19.56
2018-08-20T02:00:29.109Z,19.53
2018-08-20T02:03:00.924Z,19.52
2018-08-20T02:05:28.349Z,19.49
2018-08-20T02:07:55.661Z,19.41
2018-08-20T02:10:23.000Z,19.38
2018-08-20T02:12:50.236Z,19.32
2018-08-20T02:15:17.550Z,19.22
2018-08-20T02:17:44.899Z,19.13
2018-08-20T02:20:12.218Z,19.19
2018-08-20T02:22:39.497Z,19.15
2018-08-20T02:25:06.841Z,19.10
2018-08-20T02:27:34.139Z,19.07
2018-08-20T02:30:01.459Z,18.93
2018-08-20T02:32:28.781Z,18.69
2018-08-20T02:34:56.027Z,18.62
2018-08-20T02:37:25.557Z,18.54
2018-08-20T02:39:52.923Z,18.60
2018-08-20T02:42:20.286Z,18.57
2018-08-20T02:44:47.595Z,18.62
2018-08-20T02:47:14.925Z,18.52
2018-08-20T02:49:42.199Z,18.54
2018-08-20T02:52:09.503Z,18.54
2018-08-20T02:54:36.800Z,18.45
2018-08-20T02:57:04.118Z,18.32
2018-08-20T02:59:31.432Z,18.31
2018-08-20T03:01:58.806Z,18.31
2018-08-20T03:04:26.148Z,18.31
2018-08-20T03:06:53.423Z,18.31
2018-08-20T03:09:20.742Z,18.32
2018-08-20T03:11:48.090Z,18.21
2018-08-20T03:14:15.440Z,18.16
2018-08-20T03:16:42.682Z,18.21
2018-08-20T03:19:10.263Z,18.30
2018-08-20T03:21:37.510Z,18.28
2018-08-20T03:25:29.402Z,18.23
2018-08-20T03:27:56.740Z,18.19
2018-08-20T03:30:23.970Z,18.25
2018-08-20T03:32:51.299Z,18.15
2018-08-20T03:35:18.643Z,18.16
2018-08-20T03:37:45.891Z,18.16
2018-08-20T03:40:13.138Z,18.09
2018-08-20T03:42:40.601Z,18.10
2018-08-20T03:45:08.613Z,18.11
2018-08-20T03:47:35.969Z,18.07
2018-08-20T03:50:04.134Z,17.95
2018-08-20T03:52:31.404Z,17.90
2018-08-20T03:54:58.757Z,17.96
2018-08-20T03:57:26.510Z,17.96
2018-08-20T03:59:54.330Z,17.96
2018-08-20T04:02:21.925Z,18.02
2018-08-20T04:04:49.214Z,18.03
2018-08-20T04:07:16.432Z,17.94
2018-08-20T04:09:43.699Z,17.82
2018-08-20T04:12:11.033Z,17.91
2018-08-20T04:14:38.369Z,17.91
2018-08-20T04:17:05.753Z,17.90
2018-08-20T04:19:32.978Z,17.86
2018-08-20T04:22:00.235Z,17.85
2018-08-20T04:24:27.469Z,17.91
2018-08-20T04:26:54.798Z,17.87
2018-08-20T04:29:22.204Z,17.88
2018-08-20T04:31:49.506Z,17.89
2018-08-20T04:34:18.335Z,17.79
2018-08-20T04:36:45.746Z,17.78
2018-08-20T04:39:12.987Z,17.85
2018-08-20T04:41:40.305Z,17.92
2018-08-20T04:44:07.944Z,17.92
2018-08-20T04:46:35.283Z,17.79
2018-08-20T04:49:02.583Z,17.78
2018-08-20T04:51:29.998Z,17.80
2018-08-20T04:53:57.191Z,17.73
2018-08-20T04:56:25.047Z,17.75
2018-08-20T04:58:52.442Z,17.84
2018-08-20T05:01:19.674Z,17.89
2018-08-20T05:03:47.257Z,17.92
2018-08-20T05:06:14.503Z,17.97
2018-08-20T05:08:41.841Z,17.97
2018-08-20T05:11:09.090Z,17.99
2018-08-20T05:13:36.308Z,17.96
2018-08-20T05:16:03.569Z,18.03
2018-08-20T05:18:30.895Z,18.09
2018-08-20T05:20:58.195Z,18.19
2018-08-20T05:23:25.477Z,18.31
2018-08-20T05:27:17.357Z,18.30
2018-08-20T05:29:48.879Z,18.41
2018-08-20T05:32:16.318Z,18.51
2018-08-20T05:34:43.591Z,18.58
2018-08-20T05:37:10.888Z,18.65
2018-08-20T05:39:38.214Z,18.78
2018-08-20T05:42:05.639Z,18.88
2018-08-20T05:44:32.956Z,19.07
2018-08-20T05:47:00.279Z,19.26
2018-08-20T05:49:27.665Z,19.41
2018-08-20T05:51:55.053Z,19.60
2018-08-20T05:54:22.361Z,19.69
2018-08-20T05:56:49.751Z,19.70
2018-08-20T05:59:17.148Z,19.70
2018-08-20T06:01:44.493Z,19.76
2018-08-20T06:04:11.749Z,19.99
2018-08-20T06:06:38.982Z,20.24
2018-08-20T06:09:07.534Z,20.46
2018-08-20T06:11:34.830Z,20.65
2018-08-20T06:14:02.232Z,20.52
2018-08-20T06:16:29.554Z,20.56
2018-08-20T06:18:57.049Z,20.76
2018-08-20T06:21:24.391Z,20.97
2018-08-20T06:23:51.702Z,21.07
2018-08-20T06:26:19.088Z,21.18
2018-08-20T06:28:46.430Z,21.19
2018-08-20T06:31:13.685Z,21.27
2018-08-20T06:33:40.983Z,21.37
2018-08-20T06:36:08.244Z,21.45
2018-08-20T06:38:35.565Z,21.58
2018-08-20T06:41:02.918Z,21.71
2018-08-20T06:43:30.178Z,21.87
2018-08-20T06:45:57.458Z,21.99
2018-08-20T06:48:24.733Z,22.11
2018-08-20T06:50:51.977Z,22.30
2018-08-20T06:53:19.315Z,22.21
2018-08-20T06:55:46.687Z,22.27
2018-08-20T06:58:13.893Z,22.44
2018-08-20T07:00:41.159Z,22.64
2018-08-20T07:03:08.551Z,22.89
2018-08-20T07:05:35.832Z,22.94
2018-08-20T07:08:03.157Z,23.14
2018-08-20T07:10:36.146Z,23.40
2018-08-20T07:13:14.679Z,23.69
2018-08-20T07:15:42.088Z,23.98
2018-08-20T07:18:09.644Z,24.42
2018-08-20T07:20:36.963Z,24.95
2018-08-20T07:23:04.274Z,25.28
2018-08-20T07:25:31.537Z,25.59
2018-08-20T07:27:58.839Z,26.01
2018-08-20T07:30:26.040Z,26.38
2018-08-20T07:32:53.368Z,26.72
2018-08-20T07:35:20.588Z,27.08
2018-08-20T07:37:47.821Z,27.21
2018-08-20T07:40:16.788Z,27.41
2018-08-20T07:42:44.254Z,27.46
2018-08-20T07:45:11.525Z,27.63
2018-08-20T07:47:38.824Z,27.65
2018-08-20T07:50:06.209Z,27.63
2018-08-20T07:52:33.517Z,27.37
2018-08-20T07:55:00.877Z,27.13
2018-08-20T07:57:28.171Z,27.09
2018-08-20T07:59:55.523Z,26.85
2018-08-20T08:02:22.868Z,26.79
2018-08-20T08:04:50.148Z,26.70
2018-08-20T08:07:17.448Z,26.35
2018-08-20T08:09:44.805Z,26.34
2018-08-20T08:12:12.113Z,26.43
2018-08-20T08:14:39.448Z,26.58
2018-08-20T08:17:06.782Z,26.73
2018-08-20T08:19:34.194Z,26.66
2018-08-20T08:22:01.886Z,26.71
2018-08-20T08:25:31.916Z,26.82
2018-08-20T08:27:59.249Z,27.04
2018-08-20T08:30:26.592Z,27.31
2018-08-20T08:32:53.850Z,27.11
2018-08-20T08:35:21.186Z,27.06
2018-08-20T08:37:48.696Z,27.21
2018-08-20T08:40:16.073Z,27.39
2018-08-20T08:42:43.589Z,27.37
2018-08-20T08:45:14.942Z,27.14
2018-08-20T08:47:42.657Z,27.23
2018-08-20T08:50:09.962Z,27.34
2018-08-20T08:52:37.240Z,27.61
2018-08-20T08:55:05.228Z,27.79
2018-08-20T08:57:32.439Z,27.90
2018-08-20T08:59:59.784Z,27.60
2018-08-20T09:02:27.124Z,27.68
2018-08-20T09:04:54.506Z,27.74
2018-08-20T09:07:21.752Z,27.65
2018-08-20T09:09:48.981Z,27.90
2018-08-20T09:12:16.252Z,28.26
2018-08-20T09:14:43.598Z,28.52
2018-08-20T09:17:10.871Z,28.70
2018-08-20T09:19:38.216Z,28.70
2018-08-20T09:22:05.712Z,28.89
2018-08-20T09:24:33.015Z,29.16
2018-08-20T09:27:00.313Z,29.09
2018-08-20T09:29:27.583Z,29.01
2018-08-20T09:31:54.880Z,29.06
2018-08-20T09:34:22.475Z,28.79
2018-08-20T09:36:49.788Z,28.71
2018-08-20T09:39:17.072Z,28.99
2018-08-20T09:41:44.356Z,28.91
2018-08-20T09:44:11.655Z,28.71
2018-08-20T09:46:38.921Z,28.91
2018-08-20T09:49:06.218Z,29.41
2018-08-20T09:51:34.293Z,29.83
2018-08-20T09:54:02.065Z,29.61
2018-08-20T09:56:29.498Z,29.47
2018-08-20T09:58:56.913Z,29.54
2018-08-20T10:01:24.228Z,30.00
2018-08-20T10:03:51.617Z,30.31
2018-08-20T10:06:18.920Z,30.39
2018-08-20T10:08:46.205Z,30.16
2018-08-20T10:11:13.655Z,29.92
2018-08-20T10:13:41.665Z,29.51
2018-08-20T10:16:09.167Z,29.18
2018-08-20T10:18:37.032Z,28.98
2018-08-20T10:21:04.377Z,28.83
2018-08-20T10:23:31.699Z,29.08
2018-08-20T10:25:59.031Z,29.92
2018-08-20T10:28:26.363Z,30.57
2018-08-20T10:30:53.747Z,30.73
2018-08-20T10:33:21.000Z,30.69
2018-08-20T10:35:48.293Z,30.34
2018-08-20T10:38:15.479Z,30.33
2018-08-20T10:40:42.807Z,30.53
2018-08-20T10:43:10.097Z,30.35
2018-08-20T10:45:43.090Z,29.84
2018-08-20T10:48:10.560Z,29.94
2018-08-20T10:50:37.893Z,30.50
2018-08-20T10:53:05.489Z,31.24
2018-08-20T10:55:32.816Z,31.59
2018-08-20T10:58:00.077Z,31.46
2018-08-20T11:00:27.404Z,31.25
2018-08-20T11:02:54.696Z,31.16
2018-08-20T11:05:22.129Z,31.35
2018-08-20T11:07:49.444Z,31.79
2018-08-20T11:10:16.792Z,31.72
2018-08-20T11:12:44.133Z,31.27
2018-08-20T11:15:11.729Z,31.20
2018-08-20T11:17:39.112Z,31.24
2018-08-20T11:20:10.624Z,31.79
2018-08-20T11:22:37.950Z,31.80
2018-08-20T11:25:06.094Z,31.90
2018-08-20T11:27:33.459Z,31.35
2018-08-20T11:30:00.726Z,31.53
2018-08-20T11:32:28.093Z,32.12
2018-08-20T11:34:55.506Z,32.46
2018-08-20T11:37:23.209Z,32.46
2018-08-20T11:39:50.463Z,32.71
2018-08-20T11:42:17.748Z,32.44
2018-08-20T11:44:57.912Z,31.51
2018-08-20T11:47:25.255Z,31.66
2018-08-20T11:49:52.587Z,31.94
2018-08-20T11:52:19.845Z,32.66
2018-08-20T11:54:47.313Z,32.31
2018-08-20T11:57:14.615Z,32.31
2018-08-20T11:59:41.937Z,32.77
2018-08-20T12:02:09.479Z,33.13
2018-08-20T12:04:36.826Z,32.77
2018-08-20T12:07:04.145Z,32.86
2018-08-20T12:09:31.503Z,33.06
2018-08-20T12:11:58.984Z,33.66
2018-08-20T12:14:26.275Z,34.09
2018-08-20T12:16:53.591Z,33.91
2018-08-20T12:19:20.833Z,33.05
2018-08-20T12:21:48.146Z,32.28
2018-08-20T12:24:15.495Z,32.58
2018-08-20T12:26:42.854Z,32.47
2018-08-20T12:29:10.906Z,32.37
2018-08-20T12:31:38.171Z,32.96
2018-08-20T12:34:05.468Z,33.23
2018-08-20T12:36:32.762Z,33.37
2018-08-20T12:39:00.122Z,33.60
2018-08-20T12:41:27.410Z,34.17
2018-08-20T12:43:54.640Z,34.31
2018-08-20T12:46:21.920Z,34.76
2018-08-20T12:48:50.919Z,34.75
2018-08-20T12:51:18.847Z,34.98
2018-08-20T12:53:46.208Z,35.38
2018-08-20T12:56:13.557Z,35.69
2018-08-20T12:58:52.213Z,35.00
2018-08-20T13:01:19.628Z,34.94
2018-08-20T13:03:47.498Z,35.51
2018-08-20T13:06:14.761Z,35.62
2018-08-20T13:08:42.091Z,35.25
2018-08-20T13:11:09.428Z,35.09
2018-08-20T13:13:36.664Z,34.99
2018-08-20T13:16:04.101Z,34.83
2018-08-20T13:18:32.050Z,35.20
2018-08-20T13:20:59.393Z,35.30
2018-08-20T13:23:26.676Z,35.54
2018-08-20T13:25:54.125Z,34.86
2018-08-20T13:28:21.433Z,34.56
2018-08-20T13:30:48.754Z,34.64
2018-08-20T13:33:16.230Z,34.79
2018-08-20T13:35:43.596Z,34.31
2018-08-20T13:38:10.912Z,33.97
2018-08-20T13:40:38.345Z,34.34
2018-08-20T13:43:06.041Z,34.55
2018-08-20T13:45:33.429Z,34.53
2018-08-20T13:48:00.874Z,34.72
2018-08-20T13:50:28.194Z,34.96
2018-08-20T13:52:55.556Z,35.08
2018-08-20T13:55:22.940Z,34.99
2018-08-20T13:57:50.305Z,34.65
2018-08-20T14:00:18.810Z,34.58
2018-08-20T14:02:46.202Z,34.84
2018-08-20T14:05:14.462Z,35.29
2018-08-20T14:07:42.482Z,35.22
2018-08-20T14:10:10.898Z,35.06
2018-08-20T14:12:39.067Z,35.12
2018-08-20T14:15:07.227Z,35.13
2018-08-20T14:17:34.609Z,35.15
2018-08-20T14:20:02.027Z,35.32
2018-08-20T14:22:29.368Z,35.19
2018-08-20T14:24:56.754Z,35.02
2018-08-20T14:27:24.214Z,34.95
2018-08-20T14:29:51.536Z,34.97
2018-08-20T14:32:18.799Z,35.05
2018-08-20T14:34:46.147Z,35.25
2018-08-20T14:37:13.504Z,34.87
2018-08-20T14:39:40.787Z,34.65
2018-08-20T14:42:08.217Z,35.05
2018-08-20T14:44:35.609Z,35.35
2018-08-20T14:47:03.050Z,35.33
2018-08-20T14:49:30.416Z,35.28
2018-08-20T14:51:57.849Z,35.67
2018-08-20T14:54:25.746Z,36.09
2018-08-20T14:56:53.080Z,36.25
2018-08-20T14:59:20.442Z,36.03
2018-08-20T15:01:47.700Z,35.51
2018-08-20T15:04:15.007Z,35.92
2018-08-20T15:06:56.832Z,36.44
2018-08-20T15:09:24.843Z,36.47
2018-08-20T15:11:52.265Z,36.65
2018-08-20T15:14:19.550Z,36.65
2018-08-20T15:16:46.862Z,36.91
2018-08-20T15:19:14.222Z,37.01
2018-08-20T15:21:41.518Z,37.06
2018-08-20T15:24:08.776Z,37.30
2018-08-20T15:26:36.081Z,36.63
2018-08-20T15:29:03.405Z,35.79
2018-08-20T15:31:30.682Z,35.47
2018-08-20T15:33:58.015Z,34.86
2018-08-20T15:36:25.290Z,34.98
2018-08-20T15:38:52.807Z,35.11
2018-08-20T15:41:20.065Z,35.44
2018-08-20T15:43:47.360Z,35.53
2018-08-20T15:46:14.710Z,34.98
2018-08-20T15:48:41.953Z,35.12
2018-08-20T15:51:09.303Z,35.09
2018-08-20T15:53:36.695Z,35.12
2018-08-20T15:56:04.061Z,34.96
2018-08-20T15:58:31.485Z,34.82
2018-08-20T16:00:58.754Z,34.83
2018-08-20T16:03:26.020Z,34.17
2018-08-20T16:05:53.327Z,33.89
2018-08-20T16:08:20.655Z,33.50
2018-08-20T16:10:47.990Z,33.44
2018-08-20T16:13:15.210Z,33.92
2018-08-20T16:15:42.496Z,34.17
2018-08-20T16:18:09.785Z,33.82
2018-08-20T16:20:37.064Z,33.39
2018-08-20T16:23:04.752Z,33.23
2018-08-20T16:25:31.984Z,33.07
2018-08-20T16:27:59.311Z,33.04
2018-08-20T16:30:26.604Z,33.24
2018-08-20T16:32:53.919Z,33.33
2018-08-20T16:35:21.185Z,33.01
2018-08-20T16:37:48.405Z,33.14
2018-08-20T16:40:15.733Z,33.01
2018-08-20T16:42:43.077Z,32.96
2018-08-20T16:45:10.442Z,32.82
2018-08-20T16:47:38.025Z,32.64
2018-08-20T16:50:06.919Z,32.58
2018-08-20T16:52:34.367Z,32.47
2018-08-20T16:55:01.694Z,32.51
2018-08-20T16:57:29.138Z,32.42
2018-08-20T16:59:56.409Z,31.96
2018-08-20T17:02:27.544Z,31.79
2018-08-20T17:04:54.832Z,31.55
2018-08-20T17:07:22.154Z,31.25
2018-08-20T17:09:49.405Z,31.07
2018-08-20T17:12:16.704Z,30.79
2018-08-20T17:14:43.991Z,30.13
2018-08-20T17:17:11.291Z,29.93
2018-08-20T17:19:38.690Z,29.91
2018-08-20T17:22:06.162Z,29.55
2018-08-20T17:24:37.521Z,29.46
2018-08-20T17:27:04.885Z,29.21
2018-08-20T17:29:32.140Z,29.12
2018-08-20T17:32:00.925Z,28.95
2018-08-20T17:34:28.197Z,28.89
2018-08-20T17:36:55.584Z,28.74
2018-08-20T17:39:30.765Z,28.63
2018-08-20T17:42:00.521Z,28.28
2018-08-20T17:44:35.148Z,28.19
2018-08-20T17:49:54.633Z,28.09
2018-08-20T17:52:25.947Z,28.17
2018-08-20T17:54:53.223Z,27.97
2018-08-20T17:57:20.539Z,27.93
2018-08-20T17:59:47.805Z,27.85
2018-08-20T18:02:19.767Z,27.83
2018-08-20T18:04:48.430Z,27.84
2018-08-20T18:07:15.720Z,27.86
2018-08-20T18:09:43.044Z,27.61
2018-08-20T18:12:10.436Z,27.42
2018-08-20T18:14:37.633Z,27.26
2018-08-20T18:17:04.976Z,27.17
2018-08-20T18:19:32.180Z,27.09
2018-08-20T18:21:59.454Z,27.09
2018-08-20T18:24:26.782Z,27.15
2018-08-20T18:26:55.387Z,27.16
2018-08-20T18:29:22.624Z,27.05
2018-08-20T18:31:51.472Z,26.96
2018-08-20T18:34:19.341Z,27.03
2018-08-20T18:36:46.702Z,26.91
2018-08-20T18:39:14.151Z,26.81
2018-08-20T18:42:13.208Z,26.79
2018-08-20T18:44:40.555Z,26.72
2018-08-20T18:47:08.934Z,26.69
2018-08-20T18:49:45.778Z,26.60
2018-08-20T18:52:13.479Z,26.57
2018-08-20T18:54:47.785Z,26.48
2018-08-20T18:57:15.877Z,26.34
2018-08-20T18:59:43.267Z,26.29
2018-08-20T19:02:24.482Z,26.23
2018-08-20T19:04:51.784Z,26.22
2018-08-20T19:07:19.089Z,26.09
2018-08-20T19:09:47.445Z,26.02
2018-08-20T19:12:14.935Z,25.92
2018-08-20T19:14:42.266Z,25.87
2018-08-20T19:17:15.389Z,25.83
2018-08-20T19:19:46.761Z,25.74
2018-08-20T19:22:19.546Z,25.71
2018-08-20T19:24:46.899Z,25.60
2018-08-20T19:27:14.204Z,25.59
2018-08-20T19:29:47.328Z,25.64
2018-08-20T19:32:14.958Z,25.54
2018-08-20T19:34:42.237Z,25.54
2018-08-20T19:37:09.560Z,25.47
2018-08-20T19:39:36.823Z,25.43
2018-08-20T19:42:04.701Z,25.29
2018-08-20T19:44:31.968Z,25.23
2018-08-20T19:46:59.272Z,25.22
2018-08-20T19:49:26.557Z,25.20
2018-08-20T19:51:53.895Z,25.11
2018-08-20T19:54:21.251Z,25.07
2018-08-20T19:56:49.119Z,24.98
2018-08-20T19:59:24.895Z,24.87
2018-08-20T20:01:52.547Z,24.78
2018-08-20T20:04:19.939Z,24.78
2018-08-20T20:06:47.997Z,24.76
2018-08-20T20:09:16.284Z,24.73
2018-08-20T20:11:46.258Z,24.66
2018-08-20T20:14:13.756Z,24.58
2018-08-20T20:16:46.651Z,24.55
2018-08-20T20:19:14.000Z,24.46
2018-08-20T20:21:41.420Z,24.42
2018-08-20T20:24:09.412Z,24.23
2018-08-20T20:26:36.751Z,24.24
2018-08-20T20:29:05.058Z,24.16
2018-08-20T20:31:32.393Z,24.10
2018-08-20T20:33:59.771Z,24.05
2018-08-20T20:36:29.240Z,23.97
2018-08-20T20:38:56.688Z,24.03
2018-08-20T20:41:24.095Z,23.89
2018-08-20T20:43:51.813Z,23.77
2018-08-20T20:46:19.215Z,23.74
2018-08-20T20:48:46.500Z,23.75
2018-08-20T20:51:13.852Z,23.62
2018-08-20T20:53:41.225Z,23.53
2018-08-20T20:57:33.076Z,23.48
2018-08-20T21:00:01.239Z,23.35
2018-08-20T21:02:45.487Z,23.31
2018-08-20T21:05:12.868Z,23.33
2018-08-20T21:07:40.214Z,23.26
2018-08-20T21:10:07.875Z,23.27
2018-08-20T21:12:35.202Z,23.28
2018-08-20T21:15:02.587Z,23.21
2018-08-20T21:17:32.408Z,23.13
2018-08-20T21:19:59.777Z,23.08
2018-08-20T21:22:27.170Z,23.09
2018-08-20T21:24:54.516Z,22.98
2018-08-20T21:27:25.757Z,22.93
2018-08-20T21:29:55.369Z,22.84
2018-08-20T21:32:22.818Z,22.80
2018-08-20T21:34:50.185Z,22.77
2018-08-20T21:37:17.489Z,22.75
2018-08-20T21:39:44.804Z,22.71
2018-08-20T21:42:12.113Z,22.65
2018-08-20T21:44:39.450Z,22.61
2018-08-20T21:47:19.622Z,22.62
2018-08-20T21:49:46.857Z,22.54
2018-08-20T21:52:14.200Z,22.51
2018-08-20T21:54:41.519Z,22.49
2018-08-20T21:57:08.839Z,22.48
2018-08-20T21:59:36.318Z,22.43
2018-08-20T22:02:03.647Z,22.42
2018-08-20T22:04:32.616Z,22.41
2018-08-20T22:06:59.939Z,22.39
2018-08-20T22:09:27.211Z,22.30
2018-08-20T22:11:55.856Z,22.22
2018-08-20T22:14:23.285Z,22.24
2018-08-20T22:16:50.606Z,22.27
2018-08-20T22:19:17.930Z,22.17
2018-08-20T22:21:45.336Z,22.14
2018-08-20T22:24:12.635Z,22.11
2018-08-20T22:26:44.960Z,22.06
2018-08-20T22:29:12.571Z,21.97
2018-08-20T22:31:44.477Z,21.89
2018-08-20T22:34:13.501Z,21.82
2018-08-20T22:36:40.901Z,21.65
2018-08-20T22:39:08.304Z,21.54
2018-08-20T22:41:35.558Z,21.48
2018-08-20T22:44:02.968Z,21.53
2018-08-20T22:46:30.222Z,21.56
2018-08-20T22:48:58.634Z,21.55
2018-08-20T22:51:27.988Z,21.51
2018-08-20T22:53:58.626Z,21.54
2018-08-20T22:56:29.230Z,21.56
2018-08-20T22:59:01.737Z,21.56
2018-08-20T23:01:29.232Z,21.55
2018-08-20T23:03:56.668Z,21.57
2018-08-20T23:06:24.267Z,21.52
2018-08-20T23:08:51.680Z,21.35
2018-08-20T23:11:40.853Z,21.38
2018-08-20T23:14:09.636Z,21.34
2018-08-20T23:16:37.247Z,21.35
2018-08-20T23:19:04.699Z,21.28
2018-08-20T23:21:37.323Z,21.18
2018-08-20T23:24:05.124Z,21.20
2018-08-20T23:26:32.476Z,21.24
2018-08-20T23:28:59.752Z,21.27
2018-08-20T23:31:27.047Z,21.28
2018-08-20T23:33:54.317Z,21.21
2018-08-20T23:36:21.603Z,21.04
2018-08-20T23:38:48.921Z,20.81
2018-08-20T23:41:16.154Z,20.52
2018-08-20T23:43:51.805Z,20.47
2018-08-20T23:46:44.049Z,20.42
2018-08-20T23:49:11.399Z,20.38
2018-08-20T23:51:38.754Z,20.33
2018-08-20T23:54:06.126Z,20.44
2018-08-20T23:56:33.480Z,20.62
2018-08-20T23:59:00.797Z,20.71
